Main page
METAR-TAF:

METAR-TAF

Airports :

Petersburg James A. Johnson Airport

Petersburg, Alaska, United States

latitude: 56-49N, longitude: 132-58W, elevation: 0 m

Current weather observation

The report was made 34 minutes ago, at 10:56 UTC
Wind 4 kt from the West/Southwest
Temperature -1°C
Humidity 93%
Pressure 1033 hPa
Visibility: 16.1 km
Clear sky

METAR: PAPG 161056Z AUTO 24004KT 10SM CLR M01/M02 A3049 RMK AO2 SLP330 T10111017 FZRANO

Time: 03:30 (11:30 UTC)

Forecast

The report was made 6 hours and 10 minutes ago, at 05:20 UTC
Forecast valid from 16 at 06 UTC to 17 at 06 UTC
Wind 7 kt from the West
Visibility: 10 km
Clear sky
From 16 at 1200 UTC
Wind 5 kt from variable directions
Visibility: 10 km
Clear sky
From 16 at 1800 UTC
Wind 7 kt from the East
Visibility: 10 km
Clear sky

TAF: PAPG 160520Z 1606/1706 27007KT P6SM SKC FM161200 VRB05KT P6SM SKC FM161800 08007KT P6SM SKC AMD LTD TO CLD VIS AND WIND 1606/1615

Weather observations and forecasts of more than 4000 airports (METAR and TAF reports).

The available stations are represented by yellow and red dots on the map.

Hover mouse over dot to see the name of the station.

Then click to see weather observations and forecasts.

To change the map : click on the green buttons with a black cross to zoom in, on the green button with a dash to zoom out, or on the green arrows for adjacent maps.


METAR-TAF: